Time;durP1;ratioP1;P1;durP2;ratioP2;P2;SDS_P1;SDS_P2;PMS_P1;PMS_P2;Temp;Humidity;BMP_temperature;BMP_pressure;BME280_temperature;BME280_humidity;BME280_pressure;Samples;Min_cycle;Max_cycle;Signal;HPM_P1;HPM_P2
2023/03/20 00:02:09;;;;;;;6.80;5.13;;;;;;;12.87;66.21;100502.47;12968732;22;20038;-69
2023/03/20 00:07:11;;;;;;;8.68;5.75;;;;;;;12.96;66.16;100495.09;12942540;22;20077;-69
2023/03/20 00:12:16;;;;;;;10.02;6.10;;;;;;;12.92;65.86;100499.19;12943346;22;20051;-69
2023/03/20 00:17:19;;;;;;;8.32;6.50;;;;;;;12.89;66.26;100496.84;12973138;22;20031;-69
2023/03/20 00:22:21;;;;;;;9.43;6.32;;;;;;;12.90;66.20;100502.06;12972461;22;20098;-69
2023/03/20 00:27:22;;;;;;;8.15;5.53;;;;;;;12.86;66.74;100508.88;12972567;22;20068;-70
2023/03/20 00:32:24;;;;;;;7.32;4.93;;;;;;;12.86;66.17;100516.97;12972887;22;20081;-70
2023/03/20 00:37:26;;;;;;;8.80;5.30;;;;;;;12.96;66.05;100519.38;12976026;22;20420;-70
2023/03/20 00:42:28;;;;;;;6.78;4.82;;;;;;;13.09;65.47;100521.41;12973170;22;20089;-70
2023/03/20 00:47:35;;;;;;;6.43;4.00;;;;;;;13.09;65.90;100530.34;12974235;22;20020;-70
2023/03/20 00:52:36;;;;;;;4.50;3.65;;;;;;;13.09;65.66;100521.41;12972483;22;20082;-70
2023/03/20 00:57:43;;;;;;;6.38;3.72;;;;;;;13.06;66.10;100527.19;12972646;22;20023;-67
2023/03/20 01:02:44;;;;;;;4.50;3.75;;;;;;;12.96;66.12;100534.75;12972499;22;20028;-70
2023/03/20 01:07:46;;;;;;;4.97;3.42;;;;;;;12.92;66.20;100526.19;12971661;22;20031;-70
2023/03/20 01:12:48;;;;;;;4.82;3.85;;;;;;;12.88;66.42;100528.41;12971769;22;20035;-70
2023/03/20 01:17:51;;;;;;;6.07;4.82;;;;;;;12.87;66.08;100534.84;12973152;22;20024;-70
2023/03/20 01:22:53;;;;;;;10.23;5.40;;;;;;;12.67;66.63;100531.84;12970847;22;20045;-69
2023/03/20 01:27:56;;;;;;;5.43;4.45;;;;;;;12.67;66.32;100528.31;12971876;22;20023;-70
2023/03/20 01:32:59;;;;;;;7.00;4.85;;;;;;;12.63;66.70;100530.53;12970559;22;20030;-70
2023/03/20 01:38:01;;;;;;;6.45;4.70;;;;;;;12.55;67.04;100527.09;12944130;22;20099;-71
2023/03/20 01:43:02;;;;;;;8.27;5.30;;;;;;;12.55;66.79;100529.78;12972083;22;20028;-70
2023/03/20 01:48:18;;;;;;;7.47;5.18;;;;;;;12.55;66.94;100527.94;12971918;22;20089;-69
2023/03/20 01:53:23;;;;;;;8.23;5.07;;;;;;;12.46;67.19;100532.59;12971697;22;20027;-68
2023/03/20 01:58:31;;;;;;;8.82;5.72;;;;;;;12.50;66.92;100531.19;12970052;22;20027;-69
2023/03/20 02:03:33;;;;;;;7.90;5.80;;;;;;;12.50;67.15;100541.16;12971231;22;20020;-68
2023/03/20 02:08:47;;;;;;;9.15;5.47;;;;;;;12.54;67.00;100531.66;12944504;22;20020;-68
2023/03/20 02:13:51;;;;;;;7.20;5.28;;;;;;;12.49;66.93;100537.59;12971363;22;20468;-69
2023/03/20 02:18:55;;;;;;;10.70;5.78;;;;;;;12.45;66.95;100536.28;12970870;22;20020;-69
2023/03/20 02:24:09;;;;;;;9.73;5.88;;;;;;;12.38;67.65;100542.59;12944713;22;20027;-69
2023/03/20 02:29:28;;;;;;;7.65;5.60;;;;;;;12.34;67.72;100552.06;12971026;22;20023;-68
2023/03/20 02:34:48;;;;;;;8.38;5.47;;;;;;;12.21;67.68;100550.84;12969418;22;20019;-69
2023/03/20 02:40:13;;;;;;;8.93;5.57;;;;;;;12.25;67.59;100543.22;12970352;22;20024;-69
2023/03/20 02:45:17;;;;;;;8.35;5.80;;;;;;;12.23;67.68;100561.44;12944056;22;20023;-69
2023/03/20 02:50:30;;;;;;;8.48;6.13;;;;;;;12.18;67.85;100564.66;12971145;22;20364;-69
2023/03/20 02:55:42;;;;;;;7.32;5.07;;;;;;;12.27;67.67;100551.97;12969896;22;20024;-69
2023/03/20 03:00:48;;;;;;;9.23;5.85;;;;;;;12.36;67.37;100561.66;12969886;22;20027;-69
2023/03/20 03:06:00;;;;;;;8.38;5.72;;;;;;;12.32;67.52;100571.09;12943376;22;20326;-69
2023/03/20 03:11:07;;;;;;;7.15;5.15;;;;;;;12.38;67.60;100573.09;12970006;22;20134;-69
2023/03/20 03:16:15;;;;;;;11.10;5.05;;;;;;;12.27;67.44;100568.13;12969747;22;20107;-69
2023/03/20 03:21:17;;;;;;;8.98;6.22;;;;;;;12.33;67.11;100572.81;12969298;22;20039;-68
2023/03/20 03:26:26;;;;;;;9.43;5.70;;;;;;;12.31;67.42;100564.06;12970303;22;20015;-69
2023/03/20 03:31:29;;;;;;;9.02;5.45;;;;;;;12.30;67.68;100565.06;12941647;22;20020;-69
2023/03/20 03:37:02;;;;;;;8.88;5.80;;;;;;;12.30;67.86;100556.97;12942808;22;20026;-69
2023/03/20 03:42:18;;;;;;;8.68;5.82;;;;;;;12.29;67.40;100556.16;12970145;22;20081;-68
2023/03/20 03:47:29;;;;;;;10.88;6.90;;;;;;;12.24;67.75;100566.66;12970028;22;20023;-68
2023/03/20 03:52:33;;;;;;;8.80;6.30;;;;;;;12.19;67.60;100576.28;12973323;22;20031;-68
2023/03/20 03:58:08;;;;;;;8.82;5.72;;;;;;;12.08;67.98;100582.94;12980357;22;20061;-68
2023/03/20 04:03:11;;;;;;;10.05;6.03;;;;;;;12.09;67.75;100592.72;12974928;22;20092;-68
2023/03/20 04:08:15;;;;;;;10.40;6.32;;;;;;;12.05;67.80;100592.22;12972270;22;20027;-69
2023/03/20 04:13:16;;;;;;;13.85;7.45;;;;;;;12.13;67.78;100588.63;12947028;22;20082;-69
2023/03/20 04:18:18;;;;;;;9.82;6.55;;;;;;;12.25;67.56;100580.97;12973346;22;20490;-69
2023/03/20 04:23:19;;;;;;;9.30;5.65;;;;;;;12.33;67.73;100580.06;12974204;22;20085;-69
2023/03/20 04:28:21;;;;;;;9.07;6.13;;;;;;;12.35;67.64;100602.28;12946585;22;20085;-69
2023/03/20 04:33:23;;;;;;;10.63;6.68;;;;;;;12.37;66.99;100594.84;12971956;22;20020;-69
2023/03/20 04:38:25;;;;;;;10.65;6.22;;;;;;;12.44;67.12;100603.88;12974193;22;20024;-69
2023/03/20 04:43:26;;;;;;;10.23;6.72;;;;;;;12.45;66.97;100616.34;12973040;22;20031;-69
2023/03/20 04:48:27;;;;;;;11.98;7.18;;;;;;;12.41;67.46;100618.56;12945606;22;20502;-69
2023/03/20 04:53:29;;;;;;;10.95;6.45;;;;;;;12.35;67.44;100626.53;12974061;22;20349;-69
2023/03/20 04:58:30;;;;;;;12.48;6.43;;;;;;;12.36;67.19;100626.38;12974756;22;20403;-69
2023/03/20 05:03:32;;;;;;;12.57;6.32;;;;;;;12.40;67.26;100622.28;12971205;22;20097;-69
2023/03/20 05:08:33;;;;;;;11.35;6.80;;;;;;;12.43;67.79;100637.25;12970829;22;20023;-69
2023/03/20 05:13:35;;;;;;;10.48;7.05;;;;;;;12.44;67.36;100626.28;12972019;22;20031;-69
2023/03/20 05:18:36;;;;;;;9.70;6.43;;;;;;;12.42;67.55;100617.56;12971382;22;20026;-69
2023/03/20 05:23:37;;;;;;;11.05;7.03;;;;;;;12.57;67.09;100603.25;12973028;22;20023;-69
2023/03/20 05:28:39;;;;;;;9.48;6.22;;;;;;;12.66;67.42;100602.16;12972096;22;20336;-67
2023/03/20 05:33:40;;;;;;;10.40;7.30;;;;;;;12.68;67.03;100592.88;12968413;22;20085;-68
2023/03/20 05:38:42;;;;;;;10.93;6.47;;;;;;;12.76;66.84;100605.44;12969267;22;20376;-68
2023/03/20 05:43:43;;;;;;;9.43;6.57;;;;;;;12.80;66.86;100617.53;12970202;22;20024;-68
2023/03/20 05:48:44;;;;;;;11.90;6.97;;;;;;;12.77;67.08;100600.88;12969223;22;20094;-68
2023/03/20 05:53:46;;;;;;;11.80;6.55;;;;;;;12.77;66.81;100614.34;12981882;22;20090;-68
2023/03/20 05:58:47;;;;;;;12.55;8.02;;;;;;;12.77;66.55;100614.34;12968331;22;20486;-67
2023/03/20 06:03:49;;;;;;;11.73;7.28;;;;;;;12.85;66.57;100603.47;12917514;22;20338;-67
2023/03/20 06:08:51;;;;;;;11.98;7.43;;;;;;;12.90;66.52;100617.25;12966554;22;20031;-67
2023/03/20 06:13:54;;;;;;;12.50;7.07;;;;;;;12.96;66.74;100618.38;12968231;22;20134;-69
2023/03/20 06:18:55;;;;;;;12.60;6.88;;;;;;;13.04;66.48;100627.22;12967442;22;20464;-68
2023/03/20 06:23:58;;;;;;;15.25;7.95;;;;;;;13.12;66.20;100622.78;13012961;22;20387;-69
2023/03/20 06:29:00;;;;;;;14.20;7.82;;;;;;;13.11;66.65;100621.91;13000068;22;20103;-69
2023/03/20 06:34:02;;;;;;;16.17;7.60;;;;;;;13.17;66.50;100628.44;13003581;22;20031;-69
2023/03/20 06:39:03;;;;;;;16.90;9.32;;;;;;;13.19;66.21;100635.34;13013561;22;20386;-68
2023/03/20 06:44:05;;;;;;;16.50;8.93;;;;;;;13.23;66.17;100633.94;12980909;22;20024;-68
2023/03/20 06:49:07;;;;;;;17.80;8.50;;;;;;;13.29;66.16;100630.53;12973885;22;20027;-68
2023/03/20 06:54:08;;;;;;;15.50;9.02;;;;;;;13.33;65.94;100636.41;12971842;22;20024;-68
2023/03/20 06:59:09;;;;;;;18.58;9.02;;;;;;;13.27;66.29;100637.13;12976364;22;20027;-68
2023/03/20 07:04:11;;;;;;;14.70;8.85;;;;;;;13.20;66.50;100631.59;13000495;22;20028;-68
2023/03/20 07:09:12;;;;;;;14.52;8.85;;;;;;;13.26;66.80;100638.13;12987001;22;20046;-68
2023/03/20 07:14:14;;;;;;;14.45;9.07;;;;;;;13.35;66.58;100636.19;12979854;22;20028;-69
2023/03/20 07:19:16;;;;;;;21.67;9.85;;;;;;;13.39;66.95;100651.84;12975470;22;20028;-68
2023/03/20 07:24:17;;;;;;;17.83;9.50;;;;;;;13.45;66.44;100658.38;12981931;22;20020;-69
2023/03/20 07:29:19;;;;;;;19.70;10.40;;;;;;;13.47;66.52;100659.00;12969594;22;20026;-68
2023/03/20 07:34:21;;;;;;;24.08;11.65;;;;;;;13.53;66.42;100668.22;13013394;22;20087;-67
2023/03/20 07:39:23;;;;;;;26.05;11.45;;;;;;;13.56;66.54;100660.56;12981296;22;20027;-67
2023/03/20 07:44:24;;;;;;;25.83;12.65;;;;;;;13.60;66.51;100663.72;12977885;22;20081;-66
2023/03/20 07:49:25;;;;;;;31.95;13.05;;;;;;;13.68;66.48;100679.84;12982314;22;20031;-67
2023/03/20 07:54:27;;;;;;;30.13;14.10;;;;;;;13.69;66.05;100668.03;12925760;22;20050;-67
2023/03/20 07:59:28;;;;;;;31.85;12.93;;;;;;;13.79;65.84;100670.44;12976070;22;20024;-67
2023/03/20 08:04:30;;;;;;;29.88;13.20;;;;;;;13.94;65.79;100665.84;12952583;22;20019;-66
2023/03/20 08:09:31;;;;;;;28.30;13.95;;;;;;;14.11;65.36;100666.41;12948597;22;20044;-66
2023/03/20 08:14:33;;;;;;;30.83;14.68;;;;;;;14.26;64.86;100683.44;12979545;22;20028;-67
2023/03/20 08:19:35;;;;;;;33.17;16.25;;;;;;;14.24;64.96;100687.38;12978427;22;20027;-66
2023/03/20 08:24:36;;;;;;;32.72;17.10;;;;;;;14.28;64.34;100691.38;12990060;22;20162;-66
2023/03/20 08:29:38;;;;;;;33.03;16.27;;;;;;;14.05;64.12;100702.34;13018674;22;20028;-66
2023/03/20 08:34:39;;;;;;;36.13;18.50;;;;;;;14.03;63.55;100702.50;13007783;22;20057;-66
2023/03/20 08:39:40;;;;;;;35.72;16.85;;;;;;;14.19;63.14;100700.63;12962480;22;20024;-67
2023/03/20 08:44:42;;;;;;;32.90;15.23;;;;;;;14.10;62.83;100697.19;12955505;22;20035;-66
2023/03/20 08:49:43;;;;;;;35.45;16.83;;;;;;;14.08;62.61;100702.78;12927712;22;20024;-66
2023/03/20 08:54:45;;;;;;;30.75;15.35;;;;;;;14.09;61.99;100703.63;12977904;22;20050;-67
2023/03/20 08:59:46;;;;;;;24.55;13.48;;;;;;;14.15;61.65;100707.44;12949061;22;20027;-67
2023/03/20 09:04:48;;;;;;;24.60;13.45;;;;;;;14.06;61.87;100704.84;12975441;22;20031;-67
2023/03/20 09:09:49;;;;;;;25.77;14.57;;;;;;;14.13;61.44;100696.81;12983777;22;20024;-68
2023/03/20 09:14:51;;;;;;;29.20;14.35;;;;;;;14.37;61.12;100697.47;12976397;22;20023;-64
2023/03/20 09:19:52;;;;;;;24.50;12.90;;;;;;;14.25;61.30;100694.44;12949718;22;20024;-66
2023/03/20 09:24:53;;;;;;;23.50;13.02;;;;;;;14.27;61.08;100711.31;12952333;22;20062;-67
2023/03/20 09:29:55;;;;;;;24.13;12.57;;;;;;;14.09;61.17;100709.84;12963708;22;20019;-64
2023/03/20 09:34:56;;;;;;;24.40;12.98;;;;;;;14.47;60.52;100706.97;12952736;22;20024;-66
2023/03/20 09:39:58;;;;;;;28.42;14.75;;;;;;;14.80;59.92;100700.22;12923617;22;20023;-66
2023/03/20 09:45:13;;;;;;;29.58;15.98;;;;;;;14.75;60.04;100699.94;12925367;22;20058;-65
2023/03/20 09:50:27;;;;;;;29.35;15.55;;;;;;;14.88;60.02;100700.88;12951687;22;20027;-66
2023/03/20 09:55:36;;;;;;;39.67;18.45;;;;;;;14.87;60.15;100695.69;12976800;22;20020;-65
2023/03/20 10:00:43;;;;;;;30.92;15.77;;;;;;;14.99;59.95;100696.81;12947445;22;20016;-65
2023/03/20 10:05:58;;;;;;;33.05;17.08;;;;;;;15.04;60.05;100702.47;12976414;22;20031;-67
2023/03/20 10:11:24;;;;;;;30.02;14.55;;;;;;;15.24;59.83;100697.22;12923094;22;20121;-66
2023/03/20 10:16:44;;;;;;;28.73;15.50;;;;;;;15.29;59.95;100703.91;12948325;22;20023;-66
2023/03/20 10:21:48;;;;;;;29.55;16.88;;;;;;;15.45;60.14;100700.88;12926554;22;20031;-66
2023/03/20 10:26:52;;;;;;;26.85;14.48;;;;;;;15.77;59.68;100696.69;12958845;22;20554;-66
2023/03/20 10:32:04;;;;;;;26.75;14.63;;;;;;;16.01;59.25;100702.63;12949079;22;20032;-66
2023/03/20 10:37:24;;;;;;;25.25;13.18;;;;;;;16.33;58.64;100698.38;12978926;22;20019;-64
2023/03/20 10:42:36;;;;;;;24.58;12.68;;;;;;;16.42;58.00;100694.38;12972958;22;20020;-65
2023/03/20 10:47:44;;;;;;;23.35;11.80;;;;;;;16.67;57.42;100682.97;12948230;22;20070;-65
2023/03/20 10:52:48;;;;;;;23.20;13.45;;;;;;;16.42;57.27;100694.38;12948017;22;20023;-66
2023/03/20 10:57:54;;;;;;;23.10;12.70;;;;;;;16.41;57.32;100689.16;12954820;22;20456;-64
2023/03/20 11:02:55;;;;;;;20.70;11.55;;;;;;;16.22;57.53;100675.38;12985945;22;20085;-66
2023/03/20 11:08:01;;;;;;;14.95;9.52;;;;;;;16.29;56.97;100678.13;12976187;22;20395;-65
2023/03/20 11:13:23;;;;;;;14.13;7.93;;;;;;;16.42;55.81;100691.69;12948895;22;20514;-67
2023/03/20 11:18:25;;;;;;;15.88;8.57;;;;;;;16.64;55.33;100677.94;12973405;22;20562;-65
2023/03/20 11:23:31;;;;;;;15.05;7.57;;;;;;;16.69;54.92;100675.44;12964532;22;20447;-65
2023/03/20 11:28:41;;;;;;;12.07;6.45;;;;;;;16.68;54.47;100662.91;13001009;22;20084;-65
2023/03/20 11:33:45;;;;;;;12.75;7.90;;;;;;;16.61;53.79;100665.63;12969998;22;20428;-64
2023/03/20 11:38:48;;;;;;;12.63;6.45;;;;;;;16.62;54.01;100666.44;13004593;22;20082;-67
2023/03/20 11:43:50;;;;;;;10.95;6.22;;;;;;;16.67;53.37;100655.81;12961467;22;20046;-67
2023/03/20 11:49:14;;;;;;;10.35;6.82;;;;;;;16.97;52.50;100648.09;12972710;22;20028;-67
2023/03/20 11:54:20;;;;;;;9.70;4.88;;;;;;;17.03;52.07;100639.09;12959387;22;20392;-67
2023/03/20 12:05:31;;;;;;;10.20;4.43;;;;;;;17.05;51.70;100634.28;12955302;22;20096;-94
2023/03/20 12:21:57;;;;;;;7.70;4.72;;;;;;;16.92;51.25;100618.00;12940281;22;20242;-66
2023/03/20 12:27:28;;;;;;;8.35;4.90;;;;;;;16.90;51.27;100605.69;12944434;22;20032;-66
2023/03/20 12:33:05;;;;;;;7.28;4.25;;;;;;;16.77;51.30;100601.09;12919912;22;20079;-66
2023/03/20 12:43:34;;;;;;;6.07;4.13;;;;;;;16.41;51.45;100589.63;12880688;23;20047;-67
2023/03/20 12:48:58;;;;;;;8.50;4.57;;;;;;;16.62;51.30;100583.13;12877868;23;20369;-65
2023/03/20 12:54:08;;;;;;;5.93;3.92;;;;;;;16.80;51.29;100579.75;12884373;23;20020;-68
2023/03/20 12:59:35;;;;;;;6.50;3.55;;;;;;;17.03;50.94;100565.75;12870473;23;20055;-67
2023/03/20 13:05:01;;;;;;;5.53;3.25;;;;;;;17.13;50.48;100557.16;12899346;23;20053;-65
2023/03/20 13:21:07;;;;;;;4.03;1.20;;;;;;;17.18;48.91;100545.66;12972175;22;20034;-93
2023/03/20 13:27:26;;;;;;;1.17;0.60;;;;;;;17.13;47.82;100545.47;12937882;22;20024;-93
2023/03/20 13:33:48;;;;;;;1.98;0.50;;;;;;;17.05;46.70;100541.09;12833391;23;20016;-93
2023/03/20 13:39:22;;;;;;;1.77;0.80;;;;;;;16.91;45.68;100550.34;12840891;23;20027;-93
2023/03/20 13:44:34;;;;;;;2.03;0.50;;;;;;;16.83;45.26;100551.41;12851336;23;20021;-93
2023/03/20 13:50:12;;;;;;;2.40;0.77;;;;;;;16.64;44.16;100547.63;12813742;23;20011;-93
2023/03/20 14:09:59;;;;;;;1.63;0.47;;;;;;;16.47;42.45;100536.41;12577001;23;20014;-92
2023/03/20 14:22:26;;;;;;;1.77;0.70;;;;;;;16.30;42.54;100530.56;12687115;23;20053;-93
2023/03/20 15:07:51;;;;;;;6.28;1.20;;;;;;;15.87;42.42;100544.50;13019709;22;20066;-92
2023/03/20 15:14:01;;;;;;;2.33;1.00;;;;;;;15.81;42.43;100548.03;12732392;23;20026;-94
2023/03/20 15:19:22;;;;;;;5.05;1.65;;;;;;;15.72;42.23;100558.22;12762480;23;20149;-93
2023/03/20 15:24:30;;;;;;;3.88;1.23;;;;;;;15.55;41.65;100556.91;12949327;22;20027;-94
2023/03/20 15:29:48;;;;;;;3.38;0.60;;;;;;;15.38;41.35;100551.00;13040545;22;20070;-93
2023/03/20 15:36:12;;;;;;;1.98;0.70;;;;;;;15.01;41.50;100553.97;13038247;22;20023;-93
2023/03/20 15:41:33;;;;;;;2.00;0.63;;;;;;;15.05;41.17;100552.53;12831461;23;20047;-65
2023/03/20 15:46:35;;;;;;;1.48;0.50;;;;;;;14.71;42.10;100549.81;12853867;23;20048;-64
2023/03/20 15:51:36;;;;;;;1.95;0.60;;;;;;;14.65;43.18;100548.75;12858783;23;20059;-64
2023/03/20 15:56:42;;;;;;;1.52;0.70;;;;;;;14.45;44.46;100553.97;12864176;23;20032;-64
2023/03/20 16:01:46;;;;;;;1.75;0.68;;;;;;;14.31;45.21;100555.75;12851842;23;20083;-64
2023/03/20 16:06:52;;;;;;;1.10;0.70;;;;;;;14.35;45.12;100546.22;12851108;23;20032;-63
2023/03/20 16:11:59;;;;;;;0.90;0.50;;;;;;;14.42;44.81;100547.09;12854355;23;20350;-64
2023/03/20 16:17:03;;;;;;;1.85;0.50;;;;;;;14.50;44.20;100548.00;12855315;23;20070;-64
2023/03/20 16:22:17;;;;;;;3.70;0.60;;;;;;;14.56;43.52;100556.19;12860356;23;20063;-66
2023/03/20 16:27:24;;;;;;;1.98;0.70;;;;;;;14.56;42.87;100558.91;12863732;23;20078;-64
2023/03/20 16:32:38;;;;;;;1.95;0.40;;;;;;;14.58;42.04;100561.41;12857471;23;20024;-64
2023/03/20 16:37:51;;;;;;;1.20;0.40;;;;;;;14.65;41.28;100567.69;12859046;23;20021;-65
2023/03/20 16:42:55;;;;;;;2.85;0.50;;;;;;;14.70;40.92;100559.00;12857986;23;20116;-66
2023/03/20 16:48:22;;;;;;;0.80;0.63;;;;;;;14.48;40.32;100561.72;12865313;23;20025;-65
2023/03/20 16:53:27;;;;;;;1.50;0.38;;;;;;;14.38;39.79;100570.16;12866653;23;20025;-64
2023/03/20 16:58:32;;;;;;;0.57;0.30;;;;;;;14.25;39.66;100578.16;12870070;23;20028;-65
2023/03/20 17:03:49;;;;;;;1.00;0.47;;;;;;;14.18;39.77;100588.94;12841744;23;20047;-64
2023/03/20 17:08:59;;;;;;;2.70;0.60;;;;;;;14.09;39.54;100590.91;12861114;23;20039;-64
2023/03/20 17:14:03;;;;;;;1.08;0.50;;;;;;;13.93;39.04;100596.56;12871646;23;20024;-65
2023/03/20 17:19:16;;;;;;;0.85;0.40;;;;;;;13.99;39.21;100597.69;12842496;23;20051;-64
2023/03/20 17:24:18;;;;;;;3.72;0.60;;;;;;;13.91;39.65;100606.75;12860320;23;20021;-62
2023/03/20 17:29:19;;;;;;;1.55;0.60;;;;;;;13.94;39.52;100611.78;12872878;23;20025;-62
2023/03/20 17:34:21;;;;;;;1.33;0.70;;;;;;;13.96;39.65;100609.72;12874834;23;20300;-63
2023/03/20 17:39:23;;;;;;;3.28;0.88;;;;;;;14.07;39.91;100611.06;12878423;23;20457;-65
2023/03/20 17:44:25;;;;;;;3.20;0.50;;;;;;;13.99;40.16;100612.03;12860997;23;20024;-60
2023/03/20 17:49:26;;;;;;;2.10;0.45;;;;;;;13.84;40.47;100614.78;12853897;23;20032;-61
2023/03/20 17:54:28;;;;;;;5.55;0.75;;;;;;;13.71;41.06;100616.50;12853182;23;20537;-66
2023/03/20 17:59:30;;;;;;;1.63;1.13;;;;;;;13.80;40.96;100618.03;12865711;23;20028;-65
2023/03/20 18:04:32;;;;;;;2.25;0.60;;;;;;;13.58;41.90;100627.97;12869197;23;20020;-66
2023/03/20 18:09:34;;;;;;;1.67;0.85;;;;;;;13.55;42.40;100628.38;12871334;23;20043;-64
2023/03/20 18:14:36;;;;;;;3.92;0.68;;;;;;;13.48;42.56;100628.25;12872460;23;20020;-64
2023/03/20 18:19:38;;;;;;;2.70;1.33;;;;;;;13.41;42.86;100622.78;12854925;23;20024;-64
2023/03/20 18:24:39;;;;;;;1.70;0.85;;;;;;;13.43;43.17;100617.19;12860322;23;20027;-62
2023/03/20 18:29:44;;;;;;;2.83;1.02;;;;;;;13.46;43.20;100619.50;12861941;23;20035;-62
2023/03/20 18:34:45;;;;;;;4.10;1.05;;;;;;;13.39;43.85;100614.03;12846126;23;20025;-66
2023/03/20 18:39:47;;;;;;;3.63;0.93;;;;;;;13.41;43.83;100620.09;12824115;23;20103;-65
2023/03/20 18:44:48;;;;;;;3.92;1.13;;;;;;;13.36;44.67;100621.66;12859904;23;20524;-63
2023/03/20 18:49:50;;;;;;;5.15;2.13;;;;;;;13.47;44.44;100607.69;12855728;23;20028;-67
2023/03/20 18:54:51;;;;;;;3.33;1.02;;;;;;;13.38;44.89;100606.13;12859842;23;20028;-62
2023/03/20 18:59:52;;;;;;;3.35;1.30;;;;;;;13.28;45.23;100603.69;12835149;23;20028;-65
2023/03/20 19:04:54;;;;;;;2.92;1.05;;;;;;;13.17;45.51;100617.63;12838116;23;20024;-65
2023/03/20 19:09:55;;;;;;;2.38;0.50;;;;;;;13.10;45.84;100621.06;12867824;23;20024;-66
2023/03/20 19:14:56;;;;;;;1.85;0.82;;;;;;;13.17;45.95;100621.19;12862402;23;20353;-65
2023/03/20 19:19:58;;;;;;;4.30;1.30;;;;;;;13.21;45.83;100627.88;12825653;23;20028;-63
2023/03/20 19:24:59;;;;;;;3.72;0.95;;;;;;;13.28;45.73;100623.41;12853253;23;20025;-66
2023/03/20 19:30:01;;;;;;;4.30;1.13;;;;;;;13.32;46.09;100626.59;12855694;23;20029;-66
2023/03/20 19:35:02;;;;;;;9.68;1.08;;;;;;;13.29;45.84;100619.72;12844624;23;20343;-66
2023/03/20 19:40:32;;;;;;;3.17;0.90;;;;;;;13.20;46.02;100618.09;12817276;23;20035;-66
2023/03/20 19:45:37;;;;;;;7.15;1.02;;;;;;;13.32;46.22;100618.50;12841850;23;20458;-63
2023/03/20 19:50:39;;;;;;;5.45;1.38;;;;;;;13.33;46.30;100631.00;12841231;23;20056;-66
2023/03/20 19:55:45;;;;;;;4.80;1.38;;;;;;;13.21;46.38;100622.50;12838709;23;20059;-66
2023/03/20 20:00:49;;;;;;;2.42;1.00;;;;;;;13.27;46.55;100623.63;12840574;23;20029;-66
2023/03/20 20:06:10;;;;;;;4.18;1.30;;;;;;;13.30;46.25;100615.16;12840917;23;20135;-66
2023/03/20 20:11:14;;;;;;;5.25;1.50;;;;;;;13.32;46.51;100612.28;12843247;23;20036;-66
2023/03/20 20:16:15;;;;;;;5.45;1.30;;;;;;;13.34;46.84;100616.44;12840345;23;20071;-67
2023/03/20 20:21:17;;;;;;;4.47;1.35;;;;;;;13.24;46.75;100616.69;12841201;23;20483;-68
2023/03/20 20:26:38;;;;;;;3.33;1.33;;;;;;;13.21;46.76;100619.78;12840489;23;20131;-65
2023/03/20 20:31:53;;;;;;;4.65;1.45;;;;;;;13.12;47.29;100614.66;12840941;23;20028;-66
2023/03/20 20:36:54;;;;;;;4.45;1.27;;;;;;;13.16;46.96;100627.59;12843840;23;20029;-64
2023/03/20 20:42:16;;;;;;;3.67;0.95;;;;;;;13.09;47.11;100618.56;12838772;23;20039;-66
2023/03/20 20:47:17;;;;;;;5.88;1.08;;;;;;;13.00;47.80;100622.41;12845713;23;20036;-66
2023/03/20 20:52:19;;;;;;;4.38;1.15;;;;;;;13.05;47.80;100612.72;12844375;23;20024;-64
2023/03/20 20:57:20;;;;;;;6.05;1.67;;;;;;;13.17;47.63;100626.59;12845611;23;20028;-66
2023/03/20 21:02:22;;;;;;;5.18;1.90;;;;;;;13.22;48.22;100620.63;12844561;23;20044;-66
2023/03/20 21:07:24;;;;;;;7.22;1.88;;;;;;;13.27;47.83;100621.75;12844702;23;20094;-63
2023/03/20 21:12:25;;;;;;;7.30;1.85;;;;;;;13.31;48.27;100624.94;12843480;23;20028;-61
2023/03/20 21:17:39;;;;;;;4.53;1.23;;;;;;;13.28;48.47;100626.09;12847216;23;20027;-62
2023/03/20 21:22:59;;;;;;;3.60;1.20;;;;;;;13.31;48.11;100629.47;12844628;23;20095;-65
2023/03/20 21:28:01;;;;;;;4.88;1.20;;;;;;;13.22;48.80;100616.06;12846850;23;20021;-65
2023/03/20 21:33:02;;;;;;;3.72;1.38;;;;;;;13.19;48.61;100618.28;12818232;23;20389;-64
2023/03/20 21:38:04;;;;;;;4.95;1.55;;;;;;;13.08;48.88;100615.03;12845415;23;20024;-67
2023/03/20 21:43:25;;;;;;;3.97;1.02;;;;;;;13.05;49.09;100620.81;12845841;23;20052;-64
2023/03/20 21:48:27;;;;;;;6.97;1.60;;;;;;;13.00;49.35;100619.69;12840754;23;20074;-64
2023/03/20 21:53:49;;;;;;;5.03;1.25;;;;;;;12.95;49.96;100619.41;12823075;23;20109;-65
2023/03/20 21:59:10;;;;;;;3.70;1.42;;;;;;;12.90;50.25;100618.09;12822000;23;20025;-65
2023/03/20 22:04:31;;;;;;;5.75;1.05;;;;;;;12.83;50.48;100614.44;12844346;23;20032;-64
2023/03/20 22:09:53;;;;;;;8.68;1.75;;;;;;;12.81;50.45;100607.56;12844199;23;20046;-64
2023/03/20 22:15:14;;;;;;;3.88;1.73;;;;;;;12.85;50.81;100604.31;12840763;23;20453;-66
2023/03/20 22:20:35;;;;;;;4.90;1.50;;;;;;;12.73;51.01;100608.47;12844178;23;20056;-64
2023/03/20 22:26:00;;;;;;;6.97;1.27;;;;;;;12.69;51.02;100605.31;12844158;23;20050;-65
2023/03/20 22:31:21;;;;;;;5.70;1.67;;;;;;;12.71;51.21;100607.84;12819936;23;20104;-64
2023/03/20 22:36:46;;;;;;;3.60;1.10;;;;;;;12.75;51.46;100603.75;12843316;23;20024;-64
2023/03/20 22:42:07;;;;;;;7.63;2.38;;;;;;;12.73;51.77;100600.41;12840545;23;20024;-65
2023/03/20 22:47:29;;;;;;;4.80;1.60;;;;;;;12.57;52.10;100596.00;12841701;23;20036;-64
2023/03/20 22:52:31;;;;;;;2.97;1.42;;;;;;;12.56;52.47;100594.34;12789538;23;20017;-63
2023/03/20 22:57:48;;;;;;;;;;;;;;;12.50;52.15;100595.06;12845538;23;20129;-63
2023/03/20 23:03:06;;;;;;;7.20;1.60;;;;;;;12.50;52.50;100589.69;12842374;23;19915;-63
2023/03/20 23:08:28;;;;;;;6.22;1.98;;;;;;;12.56;52.30;100590.78;12842846;23;20338;-64
2023/03/20 23:13:31;;;;;;;5.85;1.40;;;;;;;12.59;52.77;100593.13;12841355;23;20036;-63
2023/03/20 23:18:32;;;;;;;5.57;1.50;;;;;;;12.56;52.90;100580.84;12842002;23;20553;-63
2023/03/20 23:23:34;;;;;;;4.72;1.50;;;;;;;12.55;53.11;100587.25;12842681;23;20397;-65
2023/03/20 23:28:37;;;;;;;7.30;2.22;;;;;;;12.54;53.26;100580.19;12842678;23;20043;-63
2023/03/20 23:33:38;;;;;;;4.40;1.85;;;;;;;12.51;53.48;100580.56;12815309;23;20345;-63
2023/03/20 23:38:40;;;;;;;6.95;1.88;;;;;;;12.52;53.48;100578.69;12843576;23;20094;-65
2023/03/20 23:43:41;;;;;;;4.82;1.80;;;;;;;12.45;53.56;100581.28;12842032;23;20021;-64
2023/03/20 23:48:43;;;;;;;7.28;1.77;;;;;;;12.43;54.00;100576.06;12844756;23;20051;-64
2023/03/20 23:53:44;;;;;;;5.25;2.17;;;;;;;12.41;54.00;100567.34;12842503;23;20465;-65
2023/03/20 23:58:46;;;;;;;6.22;1.88;;;;;;;12.43;54.07;100567.97;12842815;23;20020;-65
